createdAt,value
2017-02-16T00:01:27.931Z,36.3
2017-02-16T00:04:00.578Z,36.3
2017-02-16T00:06:33.214Z,36.3
2017-02-16T00:09:05.881Z,36.2
2017-02-16T00:11:38.976Z,36.3
2017-02-16T00:14:11.605Z,36.2
2017-02-16T00:16:45.128Z,36.2
2017-02-16T00:19:18.178Z,36.2
2017-02-16T00:21:50.826Z,36.1
2017-02-16T00:24:23.480Z,36.1
2017-02-16T00:26:56.130Z,36.2
2017-02-16T00:29:28.787Z,36.1
2017-02-16T00:32:01.442Z,36.1
2017-02-16T00:34:34.493Z,36.1
2017-02-16T00:37:07.979Z,36.1
2017-02-16T00:39:40.837Z,36.1
2017-02-16T00:42:13.912Z,36.1
2017-02-16T00:44:46.547Z,36.1
2017-02-16T00:47:19.175Z,36.1
2017-02-16T00:49:52.229Z,36.1
2017-02-16T00:52:24.848Z,36.2
2017-02-16T00:54:57.481Z,36.2
2017-02-16T00:57:30.101Z,36.1
2017-02-16T01:00:02.747Z,36.2
2017-02-16T01:02:36.243Z,36.2
2017-02-16T01:05:08.905Z,36.2
2017-02-16T01:07:41.994Z,36.2
2017-02-16T01:10:15.109Z,36.3
2017-02-16T01:12:48.174Z,36.2
2017-02-16T01:15:21.232Z,36.3
2017-02-16T01:17:53.875Z,36.2
2017-02-16T01:20:26.534Z,36.3
2017-02-16T01:22:59.165Z,36.3
2017-02-16T01:25:31.836Z,36.3
2017-02-16T01:28:04.886Z,36.3
2017-02-16T01:30:37.967Z,36.4
2017-02-16T01:33:11.026Z,36.3
2017-02-16T01:35:43.678Z,36.3
2017-02-16T01:38:16.740Z,36.3
2017-02-16T01:40:49.822Z,36.2
2017-02-16T01:43:22.473Z,36.3
2017-02-16T01:45:55.524Z,36.2
2017-02-16T01:48:28.599Z,36.3
2017-02-16T01:51:01.875Z,36.4
2017-02-16T01:53:34.502Z,36.3
2017-02-16T01:56:07.152Z,36.2
2017-02-16T01:58:39.773Z,36.2
2017-02-16T02:01:12.392Z,36.2
2017-02-16T02:03:45.037Z,36.2
2017-02-16T02:06:18.067Z,36.2
2017-02-16T02:08:51.108Z,36.2
2017-02-16T02:11:23.745Z,36.2
2017-02-16T02:13:56.368Z,36.2
2017-02-16T02:16:29.008Z,36.2
2017-02-16T02:19:01.649Z,36.1
2017-02-16T02:21:34.729Z,36.2
2017-02-16T02:24:07.385Z,36.3
2017-02-16T02:26:40.208Z,36.2
2017-02-16T02:29:12.834Z,36.3
2017-02-16T02:31:45.455Z,36.3
2017-02-16T02:34:18.084Z,36.3
2017-02-16T02:36:50.698Z,36.2
2017-02-16T02:39:23.307Z,36.3
2017-02-16T02:41:55.943Z,36.2
2017-02-16T02:44:28.583Z,36.3
2017-02-16T02:47:02.082Z,36.2
2017-02-16T02:49:35.120Z,36.3
2017-02-16T02:52:07.738Z,36.3
2017-02-16T02:54:40.412Z,36.3
2017-02-16T02:57:13.501Z,36.2
2017-02-16T02:59:46.149Z,36.3
2017-02-16T03:02:18.761Z,36.3
2017-02-16T03:04:51.420Z,36.2
2017-02-16T03:07:24.476Z,36.3
2017-02-16T03:09:57.103Z,36.3
2017-02-16T03:12:31.008Z,36.3
2017-02-16T03:15:03.629Z,36.3
2017-02-16T03:17:36.286Z,36.3
2017-02-16T03:20:08.910Z,36.3
2017-02-16T03:22:41.536Z,36.4
2017-02-16T03:25:14.177Z,36.3
2017-02-16T03:27:46.806Z,36.3
2017-02-16T03:30:19.446Z,36.2
2017-02-16T03:32:52.897Z,36.3
2017-02-16T03:35:25.540Z,36.3
2017-02-16T03:37:58.604Z,36.3
2017-02-16T03:40:31.259Z,36.4
2017-02-16T03:43:03.904Z,36.4
2017-02-16T03:45:36.556Z,36.3
2017-02-16T03:48:09.605Z,36.4
2017-02-16T03:50:42.273Z,36.3
2017-02-16T03:53:15.319Z,36.4
2017-02-16T03:55:47.963Z,36.4
2017-02-16T03:58:21.032Z,36.4
2017-02-16T04:00:53.668Z,36.5
2017-02-16T04:03:26.304Z,36.5
2017-02-16T04:05:59.347Z,36.4
2017-02-16T04:08:31.992Z,36.5
2017-02-16T04:11:05.516Z,36.4
2017-02-16T04:13:38.571Z,36.4
2017-02-16T04:16:11.238Z,36.4
2017-02-16T04:18:44.293Z,36.5
2017-02-16T04:21:17.379Z,36.5
2017-02-16T04:23:50.035Z,36.4
2017-02-16T04:26:22.674Z,36.4
2017-02-16T04:28:56.189Z,36.5
2017-02-16T04:31:28.828Z,36.5
2017-02-16T04:34:01.878Z,36.5
2017-02-16T04:36:34.941Z,36.4
2017-02-16T04:39:07.579Z,36.4
2017-02-16T04:41:40.238Z,36.4
2017-02-16T04:44:12.859Z,36.4
2017-02-16T04:46:45.521Z,36.4
2017-02-16T04:49:18.188Z,36.5
2017-02-16T04:51:50.843Z,36.5
2017-02-16T04:54:23.478Z,36.5
2017-02-16T04:56:56.150Z,36.4
2017-02-16T04:59:29.225Z,36.4
2017-02-16T05:02:02.064Z,36.5
2017-02-16T05:04:35.137Z,36.5
2017-02-16T05:07:07.785Z,36.5
2017-02-16T05:09:40.405Z,36.5
2017-02-16T05:12:14.079Z,36.6
2017-02-16T05:14:46.709Z,36.5
2017-02-16T05:17:19.349Z,36.5
2017-02-16T05:19:52.371Z,36.5
2017-02-16T05:22:25.005Z,36.5
2017-02-16T05:24:58.053Z,36.6
2017-02-16T05:27:31.135Z,36.5
2017-02-16T05:30:03.770Z,36.6
2017-02-16T05:32:36.420Z,36.6
2017-02-16T05:35:09.515Z,36.6
2017-02-16T05:37:42.128Z,36.6
2017-02-16T05:40:14.743Z,36.5
2017-02-16T05:42:47.836Z,36.6
2017-02-16T05:45:20.510Z,36.6
2017-02-16T05:47:53.148Z,36.5
2017-02-16T05:50:25.792Z,36.5
2017-02-16T05:52:58.424Z,36.7
2017-02-16T05:55:31.921Z,36.6
2017-02-16T05:58:04.558Z,36.6
2017-02-16T06:00:37.180Z,36.7
2017-02-16T06:03:09.838Z,36.6
2017-02-16T06:05:42.478Z,36.6
2017-02-16T06:08:15.106Z,36.7
2017-02-16T06:10:47.734Z,36.6
2017-02-16T06:13:20.413Z,36.7
2017-02-16T06:15:53.059Z,36.7
2017-02-16T06:18:25.698Z,36.7
2017-02-16T06:20:58.319Z,36.5
2017-02-16T06:23:30.948Z,36.7
2017-02-16T06:26:04.224Z,36.7
2017-02-16T06:28:36.869Z,36.6
2017-02-16T06:31:09.513Z,36.6
2017-02-16T06:33:42.582Z,36.5
2017-02-16T06:36:15.641Z,36.6
2017-02-16T06:38:48.287Z,36.5
2017-02-16T06:41:21.330Z,36.5
2017-02-16T06:43:54.427Z,36.6
2017-02-16T06:46:27.097Z,36.7
2017-02-16T06:48:59.755Z,36.7
2017-02-16T06:51:33.288Z,36.7
2017-02-16T06:54:05.934Z,36.7
2017-02-16T06:56:38.573Z,36.7
2017-02-16T06:59:11.187Z,36.7
2017-02-16T07:01:44.255Z,36.7
2017-02-16T07:04:16.902Z,36.7
2017-02-16T07:06:49.552Z,36.7
2017-02-16T07:09:22.623Z,36.6
2017-02-16T07:11:55.259Z,36.7
2017-02-16T07:14:27.884Z,36.7
2017-02-16T07:17:00.970Z,36.8
2017-02-16T07:19:34.035Z,36.7
2017-02-16T07:22:06.679Z,36.8
2017-02-16T07:24:39.329Z,36.8
2017-02-16T07:27:12.390Z,36.8
2017-02-16T07:29:45.430Z,36.8
2017-02-16T07:32:18.475Z,36.7
2017-02-16T07:34:51.525Z,36.7
2017-02-16T07:37:24.176Z,36.8
2017-02-16T07:39:57.263Z,36.8
2017-02-16T07:42:29.914Z,36.7
2017-02-16T07:45:02.558Z,36.8
2017-02-16T07:47:35.772Z,36.6
2017-02-16T07:50:08.480Z,36.8
2017-02-16T07:52:41.162Z,37.3
2017-02-16T07:55:13.876Z,36.7
2017-02-16T07:57:47.059Z,36.4
2017-02-16T08:00:20.172Z,35
2017-02-16T08:02:53.300Z,36
2017-02-16T08:05:26.055Z,36
2017-02-16T08:07:58.848Z,36.3
2017-02-16T08:10:31.516Z,36.4
2017-02-16T08:13:04.610Z,35
2017-02-16T08:15:37.258Z,35.8
2017-02-16T08:18:09.977Z,36.2
2017-02-16T08:20:43.159Z,36.4
2017-02-16T08:23:15.984Z,36.4
2017-02-16T08:25:48.645Z,36.4
2017-02-16T08:28:21.729Z,35.6
2017-02-16T08:30:54.808Z,36.1
2017-02-16T08:33:27.793Z,36.6
2017-02-16T08:36:00.491Z,36.6
2017-02-16T08:38:33.219Z,36.8
2017-02-16T08:41:05.852Z,36.8
2017-02-16T08:43:38.541Z,36.9
2017-02-16T08:46:11.189Z,37
2017-02-16T08:48:44.302Z,36.9
2017-02-16T08:51:17.012Z,37
2017-02-16T08:53:50.340Z,36.9
2017-02-16T08:56:25.365Z,36.8
2017-02-16T08:58:58.485Z,36.7
2017-02-16T09:01:31.159Z,36.7
2017-02-16T09:04:03.978Z,36.2
2017-02-16T09:06:37.100Z,36.1
2017-02-16T09:09:09.809Z,36
2017-02-16T09:11:42.473Z,36.1
2017-02-16T09:14:15.713Z,36.4
2017-02-16T09:16:48.730Z,36.6
2017-02-16T09:19:21.361Z,36.6
2017-02-16T09:21:54.027Z,36.5
2017-02-16T09:24:26.724Z,36.7
2017-02-16T09:26:59.465Z,36.7
2017-02-16T09:29:32.655Z,36.8
2017-02-16T09:32:05.437Z,36.8
2017-02-16T09:34:38.823Z,37
2017-02-16T09:37:11.575Z,37
2017-02-16T09:39:44.267Z,37.2
2017-02-16T09:42:16.933Z,37.2
2017-02-16T09:44:50.031Z,37.2
2017-02-16T09:47:22.662Z,37.2
2017-02-16T09:49:55.912Z,37.1
2017-02-16T09:52:28.831Z,37
2017-02-16T09:55:01.515Z,37.1
2017-02-16T09:57:34.254Z,37.2
2017-02-16T10:00:06.895Z,37
2017-02-16T10:02:39.563Z,37.2
2017-02-16T10:05:12.908Z,37.3
2017-02-16T10:07:45.566Z,37.2
2017-02-16T10:10:18.322Z,37.4
2017-02-16T10:12:50.963Z,37.4
2017-02-16T10:15:23.599Z,37.3
2017-02-16T10:17:56.663Z,37.2
2017-02-16T10:20:29.801Z,37.3
2017-02-16T10:23:10.281Z,37.3
2017-02-16T10:25:42.985Z,37.3
2017-02-16T10:28:16.145Z,37.3
2017-02-16T10:30:48.862Z,37.3
2017-02-16T10:33:21.994Z,37.3
2017-02-16T10:35:54.664Z,37.3
2017-02-16T10:38:27.712Z,37.3
2017-02-16T10:41:00.357Z,37.3
2017-02-16T10:43:33.062Z,37.2
2017-02-16T10:46:06.249Z,37.3
2017-02-16T10:48:38.914Z,37.5
2017-02-16T10:51:11.799Z,37.4
2017-02-16T10:53:44.485Z,37.2
2017-02-16T10:56:17.951Z,37.4
2017-02-16T10:58:50.641Z,37.3
2017-02-16T11:01:23.742Z,37.4
2017-02-16T11:03:56.836Z,37.2
2017-02-16T11:06:30.101Z,37.2
2017-02-16T11:09:02.744Z,37.2
2017-02-16T11:11:35.415Z,37.3
2017-02-16T11:14:08.118Z,37.3
2017-02-16T11:16:41.462Z,37.3
2017-02-16T11:19:14.160Z,37.4
2017-02-16T11:21:46.821Z,37.4
2017-02-16T11:24:19.903Z,37.3
2017-02-16T11:26:52.987Z,37.3
2017-02-16T11:29:26.069Z,37.4
2017-02-16T11:31:58.761Z,37.3
2017-02-16T11:34:31.733Z,37.3
2017-02-16T11:37:04.803Z,37.3
2017-02-16T11:39:37.465Z,37.2
2017-02-16T11:42:10.522Z,37.2
2017-02-16T11:44:43.164Z,37.2
2017-02-16T11:47:15.780Z,37.2
2017-02-16T11:49:48.423Z,37.2
2017-02-16T11:52:21.821Z,37.2
2017-02-16T11:54:54.870Z,37.1
2017-02-16T11:57:27.955Z,37.1
2017-02-16T12:00:00.609Z,37.2
2017-02-16T12:02:33.253Z,37.1
2017-02-16T12:05:05.911Z,37.1
2017-02-16T12:07:38.567Z,37.1
2017-02-16T12:10:11.183Z,37.1
2017-02-16T12:12:43.839Z,37.1
2017-02-16T12:15:17.725Z,37.2
2017-02-16T12:17:50.785Z,37.1
2017-02-16T12:20:23.957Z,37.2
2017-02-16T12:22:57.045Z,37.2
2017-02-16T12:25:29.702Z,37.2
2017-02-16T12:28:02.307Z,37.1
2017-02-16T12:30:34.949Z,37.2
2017-02-16T12:33:07.849Z,37.2
2017-02-16T12:35:40.519Z,37.2
2017-02-16T12:38:13.624Z,37.2
2017-02-16T12:40:46.241Z,37.2
2017-02-16T12:43:18.909Z,37.2
2017-02-16T12:45:51.958Z,37.2
2017-02-16T12:48:24.609Z,37.2
2017-02-16T12:50:57.274Z,37.2
2017-02-16T12:53:29.924Z,37.3
2017-02-16T12:56:02.984Z,37.2
2017-02-16T12:58:36.044Z,37.2
2017-02-16T13:01:09.094Z,37.2
2017-02-16T13:03:41.749Z,37.2
2017-02-16T13:06:14.422Z,37.2
2017-02-16T13:08:47.486Z,37.3
2017-02-16T13:11:20.103Z,37.4
2017-02-16T13:13:52.744Z,37.3
2017-02-16T13:16:26.011Z,37.3
2017-02-16T13:18:59.049Z,37.3
2017-02-16T13:21:32.117Z,37.3
2017-02-16T13:24:04.716Z,37.3
2017-02-16T13:26:37.362Z,37.3
2017-02-16T13:29:10.009Z,37.2
2017-02-16T13:31:43.086Z,37.2
2017-02-16T13:34:16.432Z,37.2
2017-02-16T13:36:49.728Z,37.1
2017-02-16T13:39:23.633Z,37.3
2017-02-16T13:41:56.301Z,37.2
2017-02-16T13:44:28.949Z,37.2
2017-02-16T13:47:01.988Z,37.2
2017-02-16T13:49:35.023Z,37.2
2017-02-16T13:52:08.079Z,37.2
2017-02-16T13:54:40.711Z,37.2
2017-02-16T13:57:14.191Z,37.2
2017-02-16T13:59:47.676Z,37.2
2017-02-16T14:02:20.306Z,37.3
2017-02-16T14:04:53.360Z,37.2
2017-02-16T14:07:25.970Z,37.3
2017-02-16T14:09:58.568Z,37.3
2017-02-16T14:12:31.610Z,37.2
2017-02-16T14:15:04.278Z,37.3
2017-02-16T14:17:37.323Z,37.3
2017-02-16T14:20:09.954Z,37.3
2017-02-16T14:22:43.398Z,37.4
2017-02-16T14:30:30.784Z,36.9
2017-02-16T14:33:03.349Z,36.8
2017-02-16T14:35:35.889Z,37.2
2017-02-16T14:38:08.848Z,37.5
2017-02-16T14:40:41.376Z,37.6
2017-02-16T14:43:13.915Z,37.5
2017-02-16T14:45:46.901Z,37.6
2017-02-16T14:48:19.436Z,37.6
2017-02-16T14:50:52.398Z,37.6
2017-02-16T14:53:24.927Z,37.4
2017-02-16T14:55:57.912Z,37.5
2017-02-16T14:58:30.447Z,37.5
2017-02-16T15:01:02.995Z,37.6
2017-02-16T15:03:35.957Z,37.5
2017-02-16T15:06:08.940Z,37.5
2017-02-16T15:08:41.921Z,37.5
2017-02-16T15:11:14.896Z,37.6
2017-02-16T15:13:47.845Z,37.4
2017-02-16T15:16:20.401Z,37.4
2017-02-16T15:18:52.927Z,37.5
2017-02-16T15:21:25.460Z,37.5
2017-02-16T15:23:57.999Z,37.3
2017-02-16T15:26:30.622Z,37.4
2017-02-16T15:29:03.265Z,37.5
2017-02-16T15:31:35.849Z,37.6
2017-02-16T15:34:08.879Z,37.8
2017-02-16T15:36:41.895Z,37.8
2017-02-16T15:39:14.916Z,38
2017-02-16T15:41:47.512Z,37.9
2017-02-16T15:44:20.179Z,38
2017-02-16T15:46:53.064Z,38.2
2017-02-16T15:49:25.653Z,38.2
2017-02-16T15:51:58.381Z,38.4
2017-02-16T15:54:32.100Z,38.6
2017-02-16T15:57:04.722Z,38.4
2017-02-16T15:59:37.405Z,38.5
2017-02-16T16:02:10.345Z,38.3
2017-02-16T16:04:43.328Z,38.2
2017-02-16T16:07:16.313Z,38.3
2017-02-16T16:09:49.388Z,38.1
2017-02-16T16:12:22.077Z,38.2
2017-02-16T16:14:54.680Z,38.2
2017-02-16T16:17:27.333Z,38.2
2017-02-16T16:20:00.310Z,38.2
2017-02-16T16:22:32.875Z,38.2
2017-02-16T16:25:06.320Z,38.1
2017-02-16T16:27:39.334Z,38.2
2017-02-16T16:30:11.986Z,38.3
2017-02-16T16:32:44.539Z,38.3
2017-02-16T16:35:17.081Z,38.3
2017-02-16T16:37:49.797Z,38.3
2017-02-16T16:40:23.245Z,38.3
2017-02-16T16:42:55.779Z,38.4
2017-02-16T16:45:28.435Z,38.4
2017-02-16T16:48:01.063Z,38.4
2017-02-16T16:50:33.849Z,38.4
2017-02-16T16:53:06.903Z,38.4
2017-02-16T16:55:39.503Z,38.8
2017-02-16T16:58:12.507Z,38.7
2017-02-16T17:00:45.504Z,38.7
2017-02-16T17:03:18.742Z,38.6
2017-02-16T17:05:51.357Z,38.4
2017-02-16T17:08:23.900Z,38.3
2017-02-16T17:10:56.477Z,38.3
2017-02-16T17:13:29.434Z,38.2
2017-02-16T17:16:02.295Z,38.2
2017-02-16T17:18:35.218Z,38.1
2017-02-16T17:21:07.802Z,38.1
2017-02-16T17:23:40.839Z,38
2017-02-16T17:26:14.380Z,38
2017-02-16T17:28:47.335Z,38
2017-02-16T17:31:19.918Z,37.9
2017-02-16T17:33:52.464Z,37.9
2017-02-16T17:36:25.002Z,37.9
2017-02-16T17:38:57.862Z,37.9
2017-02-16T17:41:30.856Z,37.8
2017-02-16T17:44:03.734Z,37.9
2017-02-16T17:46:37.137Z,37.9
2017-02-16T17:49:09.697Z,37.9
2017-02-16T17:51:42.281Z,37.9
2017-02-16T17:54:15.468Z,38
2017-02-16T17:56:48.873Z,37.9
2017-02-16T17:59:22.432Z,37.8
2017-02-16T18:01:54.992Z,37.8
2017-02-16T18:04:27.989Z,37.9
2017-02-16T18:07:00.566Z,37.8
2017-02-16T18:09:33.595Z,37.8
2017-02-16T18:12:06.417Z,37.7
2017-02-16T18:14:39.392Z,37.8
2017-02-16T18:17:11.955Z,37.8
2017-02-16T18:19:44.637Z,37.7
2017-02-16T18:22:17.202Z,37.6
2017-02-16T18:24:49.785Z,37.6
2017-02-16T18:27:23.202Z,37.6
2017-02-16T18:29:55.811Z,37.6
2017-02-16T18:32:28.371Z,37.7
2017-02-16T18:35:00.958Z,37.7
2017-02-16T18:37:33.953Z,37.6
2017-02-16T18:40:06.789Z,37.7
2017-02-16T18:42:39.862Z,37.7
2017-02-16T18:45:12.941Z,37.7
2017-02-16T18:47:46.786Z,37.8
2017-02-16T18:50:19.377Z,37.8
2017-02-16T18:52:52.003Z,37.9
2017-02-16T18:55:24.567Z,37.8
2017-02-16T18:57:57.178Z,37.7
2017-02-16T19:00:30.230Z,37.9
2017-02-16T19:03:02.796Z,37.9
2017-02-16T19:05:35.797Z,38
2017-02-16T19:08:08.788Z,37.8
2017-02-16T19:10:41.385Z,38
2017-02-16T19:13:13.924Z,37.8
2017-02-16T19:15:46.504Z,37.9
2017-02-16T19:18:19.055Z,37.6
2017-02-16T19:20:52.251Z,37.8
2017-02-16T19:23:24.840Z,37.9
2017-02-16T19:25:57.829Z,37.9
2017-02-16T19:28:30.386Z,37.9
2017-02-16T19:31:02.933Z,38
2017-02-16T19:33:35.489Z,38
2017-02-16T19:36:08.036Z,38
2017-02-16T19:38:41.417Z,38
2017-02-16T19:41:13.976Z,38
2017-02-16T19:43:46.506Z,38
2017-02-16T19:46:19.497Z,38
2017-02-16T19:48:52.452Z,38
2017-02-16T19:51:25.570Z,38
2017-02-16T19:53:58.092Z,38.1
2017-02-16T19:56:30.633Z,38.1
2017-02-16T19:59:03.807Z,38.1
2017-02-16T20:01:36.353Z,38.2
2017-02-16T20:04:09.268Z,38.1
2017-02-16T20:06:42.013Z,38
2017-02-16T20:09:14.566Z,38.1
2017-02-16T20:11:47.111Z,38.3
2017-02-16T20:14:19.705Z,38.8
2017-02-16T20:16:52.254Z,38.4
2017-02-16T20:19:25.727Z,38.6
2017-02-16T20:21:58.708Z,39
2017-02-16T20:24:31.254Z,38.8
2017-02-16T20:27:04.268Z,38.7
2017-02-16T20:29:36.812Z,38.9
2017-02-16T20:32:09.346Z,38.7
2017-02-16T20:34:41.861Z,38.7
2017-02-16T20:37:14.868Z,38.8
2017-02-16T20:39:47.403Z,38.7
2017-02-16T20:42:21.245Z,38.6
2017-02-16T20:44:54.449Z,38.7
2017-02-16T20:47:27.441Z,38.7
2017-02-16T20:50:00.011Z,38.7
2017-02-16T20:52:32.555Z,39
2017-02-16T20:55:05.518Z,38.6
2017-02-16T20:57:38.060Z,38.6
2017-02-16T21:00:10.627Z,38.7
2017-02-16T21:02:43.220Z,38.7
2017-02-16T21:05:16.184Z,38.8
2017-02-16T21:07:48.757Z,38.8
2017-02-16T21:10:21.719Z,38.9
2017-02-16T21:12:54.267Z,39
2017-02-16T21:15:27.253Z,38.9
2017-02-16T21:17:59.851Z,39
2017-02-16T21:20:32.417Z,38.9
2017-02-16T21:23:04.951Z,39
2017-02-16T21:25:37.932Z,38.9
2017-02-16T21:28:10.560Z,39
2017-02-16T21:30:43.100Z,39
2017-02-16T21:33:15.666Z,39
2017-02-16T21:35:48.209Z,39.1
2017-02-16T21:38:21.163Z,39
2017-02-16T21:40:54.124Z,38.9
2017-02-16T21:43:26.661Z,38.8
2017-02-16T21:45:59.368Z,38.8
2017-02-16T21:48:32.334Z,38.7
2017-02-16T21:51:04.895Z,38.6
2017-02-16T21:53:37.428Z,38.6
2017-02-16T21:56:10.475Z,38.6
2017-02-16T21:58:43.023Z,38.7
2017-02-16T22:01:15.558Z,38.5
2017-02-16T22:03:48.099Z,38.4
2017-02-16T22:06:20.704Z,38.3
2017-02-16T22:08:53.238Z,38.5
2017-02-16T22:11:25.903Z,38.6
2017-02-16T22:13:58.435Z,38.7
2017-02-16T22:16:31.441Z,38.8
2017-02-16T22:19:03.981Z,38.8
2017-02-16T22:21:36.561Z,38.7
2017-02-16T22:24:09.109Z,38.8
2017-02-16T22:26:42.077Z,38.8
2017-02-16T22:29:15.438Z,38.7
2017-02-16T22:31:48.429Z,38.8
2017-02-16T22:34:21.101Z,38.7
2017-02-16T22:36:53.641Z,38.8
2017-02-16T22:39:26.733Z,38.6
2017-02-16T22:41:59.434Z,38.6
2017-02-16T22:44:32.869Z,38.7
2017-02-16T22:47:05.530Z,38.6
2017-02-16T22:49:38.169Z,38.6
2017-02-16T22:52:11.671Z,38.6
2017-02-16T22:54:44.619Z,38.5
2017-02-16T22:57:17.148Z,38.6
2017-02-16T22:59:49.723Z,38.7
2017-02-16T23:02:22.259Z,38.6
2017-02-16T23:04:55.247Z,39
2017-02-16T23:07:29.171Z,39.1
2017-02-16T23:10:02.126Z,39.2
2017-02-16T23:12:34.674Z,39.2
2017-02-16T23:15:07.680Z,39.3
2017-02-16T23:17:40.679Z,39.4
2017-02-16T23:20:13.648Z,39.4
2017-02-16T23:22:46.176Z,39.3
2017-02-16T23:25:19.148Z,39.4
2017-02-16T23:27:51.708Z,39.4
2017-02-16T23:30:24.237Z,39.4
2017-02-16T23:32:57.178Z,39.5
2017-02-16T23:35:29.896Z,39.5
2017-02-16T23:38:02.510Z,39.5
2017-02-16T23:40:35.031Z,39.5
2017-02-16T23:43:07.597Z,39.6
2017-02-16T23:45:40.445Z,39.5
2017-02-16T23:48:13.607Z,39.5
2017-02-16T23:50:46.688Z,39.4
2017-02-16T23:53:19.455Z,39.4
2017-02-16T23:55:52.187Z,39.4
2017-02-16T23:58:25.179Z,39.4
